Barakoma Airport


Codes: AGBA/VEV
Name: Barakoma Airport
City: Barakoma
Country: Solomon Islands
Elevation: 0 ft.

Photos at Barakoma Airport


   Photos courtesy of SpottingLog. You can add your own sightings and photos by signing up for a free trial today.



No photos found.

Weather at Barakoma Airport


Time (UTC)DescriptionTempratureWindCloud coverageVisibilityPressureHumidity
26-Jun-2024 00:00Light Rain29°C11 mph, SE45%10000m1011hPa76%
26-Jun-2024 03:00Light Rain29°C13 mph, SE34%10000m1010hPa75%
26-Jun-2024 06:00Moderate Rain29°C13 mph, SE44%10000m1009hPa78%
26-Jun-2024 09:00Moderate Rain28°C9 mph, E100%10000m1010hPa79%
26-Jun-2024 12:00Light Rain28°C9 mph, SE100%10000m1011hPa77%
26-Jun-2024 15:00Overcast Clouds28°C7 mph, E99%10000m1009hPa77%
26-Jun-2024 18:00Light Rain28°C7 mph, E99%10000m1009hPa76%
26-Jun-2024 21:00Light Rain28°C9 mph, SE99%10000m1011hPa76%
27-Jun-2024 00:00Light Rain28°C11 mph, SE94%10000m1011hPa79%
27-Jun-2024 03:00Moderate Rain28°C11 mph, SE95%10000m1008hPa79%
27-Jun-2024 06:00Moderate Rain27°C9 mph, SE97%7583m1008hPa83%
27-Jun-2024 09:00Moderate Rain27°C9 mph, E100%10000m1010hPa83%
27-Jun-2024 12:00Moderate Rain27°C16 mph, NE100%10000m1011hPa83%
27-Jun-2024 15:00Overcast Clouds27°C4 mph, E100%10000m1010hPa82%
27-Jun-2024 18:00Light Rain27°C7 mph, SE100%10000m1009hPa83%
27-Jun-2024 21:00Light Rain28°C9 mph, SE98%10000m1011hPa80%
28-Jun-2024 00:00Overcast Clouds29°C11 mph, SE96%10000m1011hPa71%
28-Jun-2024 03:00Overcast Clouds29°C11 mph, SE90%10000m1009hPa69%
28-Jun-2024 06:00Broken Clouds29°C13 mph, SE56%10000m1009hPa75%
28-Jun-2024 09:00Light Rain28°C16 mph, SE49%10000m1011hPa81%
28-Jun-2024 12:00Light Rain28°C16 mph, SE72%10000m1011hPa81%
28-Jun-2024 15:00Light Rain27°C11 mph, SE100%10000m1010hPa83%
28-Jun-2024 18:00Light Rain27°C9 mph, SE93%10000m1009hPa81%
28-Jun-2024 21:00Moderate Rain27°C13 mph, SE100%10000m1011hPa82%
29-Jun-2024 00:00Moderate Rain27°C20 mph, E100%4560m1011hPa88%
29-Jun-2024 03:00Heavy Intensity Rain25°C9 mph, E100%10000m1009hPa86%
29-Jun-2024 06:00Light Rain27°C11 mph, E100%10000m1010hPa83%
29-Jun-2024 09:00Light Rain27°C16 mph, E100%8979m1011hPa80%
29-Jun-2024 12:00Light Rain27°C9 mph, NE100%10000m1011hPa81%
29-Jun-2024 15:00Overcast Clouds27°C7 mph, E100%10000m1009hPa81%
29-Jun-2024 18:00Overcast Clouds27°C9 mph, E97%10000m1010hPa75%
29-Jun-2024 21:00Overcast Clouds27°C9 mph, SE98%10000m1011hPa74%
30-Jun-2024 00:00Broken Clouds28°C7 mph, SE75%10000m1011hPa70%
30-Jun-2024 03:00Light Rain28°C9 mph, SE83%10000m1009hPa78%
30-Jun-2024 06:00Light Rain27°C9 mph, SE90%10000m1008hPa82%
30-Jun-2024 09:00Moderate Rain27°C7 mph, E100%10000m1010hPa79%
30-Jun-2024 12:00Light Rain27°C7 mph, E98%10000m1010hPa79%
30-Jun-2024 15:00Broken Clouds27°C4 mph, E83%10000m1009hPa79%
30-Jun-2024 18:00Overcast Clouds27°C4 mph, SE91%10000m1009hPa80%
30-Jun-2024 21:00Overcast Clouds27°C7 mph, E91%10000m1011hPa79%